Time;durP1;ratioP1;P1;durP2;ratioP2;P2;SDS_P1;SDS_P2;PMS_P1;PMS_P2;Temp;Humidity;BMP_temperature;BMP_pressure;BME280_temperature;BME280_humidity;BME280_pressure;Samples;Min_cycle;Max_cycle;Signal;HPM_P1;HPM_P2
2022/03/18 00:02:21;;;;;;;3.40;1.83;;;17.20;50.10;;;;;;5055403;28;20179;-72
2022/03/18 00:04:47;;;;;;;2.92;1.77;;;17.10;50.10;;;;;;5055723;28;20179;-72
2022/03/18 00:07:13;;;;;;;2.33;1.88;;;17.10;50.10;;;;;;5054543;28;20247;-71
2022/03/18 00:09:41;;;;;;;1.88;1.60;;;17.10;50.10;;;;;;5055443;28;20274;-72
2022/03/18 00:12:08;;;;;;;2.33;2.03;;;17.10;50.20;;;;;;5053796;28;20214;-73
2022/03/18 00:14:34;;;;;;;3.85;2.30;;;17.10;50.10;;;;;;5054977;28;20249;-73
2022/03/18 00:17:00;;;;;;;2.60;2.10;;;17.10;50.20;;;;;;5055510;28;20595;-74
2022/03/18 00:19:27;;;;;;;2.83;1.70;;;17.10;50.20;;;;;;5054318;28;20171;-73
2022/03/18 00:22:00;;;;;;;2.47;2.03;;;17.00;50.10;;;;;;5055309;28;20232;-73
2022/03/18 00:24:25;;;;;;;3.45;2.10;;;17.00;50.10;;;;;;5055045;28;20779;-73
2022/03/18 00:26:51;;;;;;;2.88;1.95;;;17.00;50.10;;;;;;5054700;28;20209;-74
2022/03/18 00:29:17;;;;;;;2.22;1.88;;;17.00;50.10;;;;;;5054984;28;20290;-73
2022/03/18 00:31:43;;;;;;;2.25;2.00;;;17.00;50.20;;;;;;5055069;28;20211;-73
2022/03/18 00:34:10;;;;;;;3.00;1.95;;;17.00;50.20;;;;;;5052873;28;20179;-72
2022/03/18 00:36:38;;;;;;;2.22;1.88;;;17.00;50.20;;;;;;5055012;28;20176;-71
2022/03/18 00:39:05;;;;;;;3.60;1.98;;;17.00;50.20;;;;;;5054865;28;20179;-73
2022/03/18 00:41:31;;;;;;;3.33;2.05;;;17.00;50.20;;;;;;5053534;28;20549;-73
2022/03/18 00:43:56;;;;;;;2.67;1.60;;;17.00;50.20;;;;;;5055041;28;20187;-73
2022/03/18 00:46:23;;;;;;;1.45;1.35;;;17.00;50.30;;;;;;5054660;28;20178;-73
2022/03/18 00:54:17;;;;;;;2.05;1.80;;;16.90;50.20;;;;;;5054396;28;20182;-73
2022/03/18 00:56:42;;;;;;;1.88;1.70;;;16.90;50.20;;;;;;5053853;28;20223;-73
2022/03/18 00:59:11;;;;;;;2.05;1.85;;;16.90;50.20;;;;;;5054250;28;20178;-72
2022/03/18 01:01:37;;;;;;;2.88;1.48;;;16.90;50.30;;;;;;5053765;28;20201;-72
2022/03/18 01:04:02;;;;;;;2.67;1.58;;;16.90;50.20;;;;;;5053159;28;20212;-71
2022/03/18 01:06:28;;;;;;;3.55;1.60;;;16.90;50.20;;;;;;5054294;28;20205;-72
2022/03/18 01:08:54;;;;;;;1.73;1.63;;;16.80;50.20;;;;;;5053777;28;20175;-74
2022/03/18 01:11:20;;;;;;;3.70;1.70;;;16.80;50.20;;;;;;5053952;28;20575;-73
2022/03/18 01:13:45;;;;;;;1.30;1.10;;;16.80;50.20;;;;;;5054245;28;20187;-73
2022/03/18 01:16:11;;;;;;;2.13;1.60;;;16.80;50.20;;;;;;5053290;28;20269;-74
2022/03/18 01:18:36;;;;;;;2.70;1.98;;;16.80;50.20;;;;;;5054142;28;20219;-73
2022/03/18 01:21:02;;;;;;;2.15;1.52;;;16.80;50.20;;;;;;5054052;28;20171;-74
2022/03/18 01:23:27;;;;;;;2.42;1.40;;;16.80;50.20;;;;;;5053035;28;20175;-73
2022/03/18 01:25:54;;;;;;;3.22;1.90;;;16.80;50.30;;;;;;5054002;28;20630;-73
2022/03/18 01:28:19;;;;;;;1.90;1.80;;;16.70;50.20;;;;;;5053528;28;20534;-73
2022/03/18 01:30:45;;;;;;;1.77;1.58;;;16.70;50.20;;;;;;5053094;28;20211;-74
2022/03/18 01:33:10;;;;;;;3.78;2.03;;;16.70;50.20;;;;;;5053512;28;20179;-72
2022/03/18 01:35:37;;;;;;;1.77;1.48;;;16.70;50.30;;;;;;5054177;28;20175;-73
2022/03/18 01:38:02;;;;;;;2.90;1.73;;;16.70;50.30;;;;;;5053251;28;20186;-73
2022/03/18 01:40:28;;;;;;;3.15;1.90;;;16.70;50.20;;;;;;5053498;28;20175;-73
2022/03/18 01:42:54;;;;;;;2.20;1.90;;;16.70;50.20;;;;;;5053751;28;20687;-73
2022/03/18 01:45:19;;;;;;;1.80;1.70;;;16.70;50.20;;;;;;5052653;28;20175;-73
2022/03/18 01:47:45;;;;;;;2.17;1.75;;;16.70;50.20;;;;;;5053407;28;20545;-74
2022/03/18 01:50:11;;;;;;;2.65;2.33;;;16.60;50.20;;;;;;5053314;28;20187;-73
2022/03/18 01:52:37;;;;;;;2.53;1.95;;;16.60;50.20;;;;;;5052912;28;20179;-73
2022/03/18 01:55:03;;;;;;;2.78;1.80;;;16.60;50.20;;;;;;5051580;28;20182;-74
2022/03/18 01:57:29;;;;;;;3.30;2.00;;;16.60;50.20;;;;;;5052877;28;20230;-73
2022/03/18 01:59:55;;;;;;;3.08;1.70;;;16.60;50.20;;;;;;5052771;28;20179;-72
2022/03/18 02:02:21;;;;;;;4.18;1.88;;;16.60;50.20;;;;;;5053130;28;20229;-71
2022/03/18 02:04:46;;;;;;;3.08;1.92;;;16.60;50.20;;;;;;5053457;28;20183;-72
2022/03/18 02:07:12;;;;;;;1.70;1.60;;;16.60;50.20;;;;;;5052426;28;20573;-71
2022/03/18 02:09:38;;;;;;;2.83;2.20;;;16.60;50.20;;;;;;5053387;28;20253;-73
2022/03/18 02:12:10;;;;;;;2.60;2.00;;;16.60;50.20;;;;;;5052431;28;20720;-73
2022/03/18 02:14:43;;;;;;;2.00;1.50;;;16.60;50.20;;;;;;5053196;28;20217;-73
2022/03/18 02:17:11;;;;;;;1.98;1.50;;;16.50;50.20;;;;;;5052634;28;20648;-73
2022/03/18 02:19:36;;;;;;;2.08;1.65;;;16.50;50.10;;;;;;5052507;28;20266;-73
2022/03/18 02:22:05;;;;;;;3.47;1.80;;;16.50;50.20;;;;;;5053112;28;20270;-73
2022/03/18 02:24:31;;;;;;;1.92;1.67;;;16.50;50.20;;;;;;5052996;28;20250;-73
2022/03/18 02:26:56;;;;;;;1.75;1.60;;;16.50;50.20;;;;;;5052307;28;20294;-74
2022/03/18 02:29:22;;;;;;;3.15;2.00;;;16.50;50.20;;;;;;5052511;28;20691;-73
2022/03/18 02:31:48;;;;;;;4.00;1.80;;;16.50;50.80;;;;;;5052964;28;20566;-73
2022/03/18 02:34:14;;;;;;;2.28;1.65;;;16.50;50.20;;;;;;5051878;28;20175;-72
2022/03/18 02:36:39;;;;;;;3.33;1.33;;;16.50;50.20;;;;;;5052887;28;20720;-72
2022/03/18 02:39:05;;;;;;;2.22;1.55;;;16.50;50.20;;;;;;5052668;28;20626;-73
2022/03/18 02:41:32;;;;;;;2.03;1.80;;;16.50;50.20;;;;;;5051792;28;20590;-73
2022/03/18 02:43:58;;;;;;;2.60;1.80;;;16.40;50.10;;;;;;5052595;28;20182;-73
2022/03/18 02:46:23;;;;;;;3.25;1.83;;;16.40;50.10;;;;;;5052531;28;20182;-73
2022/03/18 02:48:49;;;;;;;2.33;1.48;;;16.40;50.10;;;;;;5052027;28;20668;-73
2022/03/18 02:51:14;;;;;;;2.70;1.65;;;16.50;50.20;;;;;;5052054;28;20221;-74
2022/03/18 02:53:40;;;;;;;4.25;1.85;;;16.40;50.10;;;;;;5052710;28;20175;-73
2022/03/18 02:56:07;;;;;;;1.73;1.50;;;16.40;50.10;;;;;;5051729;28;20247;-73
2022/03/18 02:58:35;;;;;;;3.28;2.00;;;16.40;50.10;;;;;;5051584;28;20563;-73
2022/03/18 03:01:00;;;;;;;2.45;1.83;;;16.40;50.10;;;;;;5052727;28;20183;-72
2022/03/18 03:03:26;;;;;;;2.40;1.70;;;16.40;50.10;;;;;;5051653;28;20790;-70
2022/03/18 03:08:35;;;;;;;3.05;1.77;;;16.40;50.10;;;;;;5055988;28;20178;-72
2022/03/18 03:11:01;;;;;;;1.90;1.70;;;16.40;50.20;;;;;;5056463;28;20579;-74
2022/03/18 03:13:27;;;;;;;1.65;1.45;;;16.40;50.20;;;;;;5056369;28;20270;-74
2022/03/18 03:15:52;;;;;;;1.88;1.45;;;16.40;50.20;;;;;;5055857;28;20183;-73
2022/03/18 03:18:18;;;;;;;2.10;1.50;;;16.30;50.10;;;;;;5056202;28;20509;-74
2022/03/18 03:20:43;;;;;;;1.45;1.27;;;16.30;50.10;;;;;;5056467;28;20229;-73
2022/03/18 03:23:09;;;;;;;1.92;1.73;;;16.30;50.10;;;;;;5054538;28;20179;-73
2022/03/18 03:25:34;;;;;;;2.58;1.40;;;16.30;50.10;;;;;;5055260;28;20167;-73
2022/03/18 03:28:00;;;;;;;1.67;1.38;;;16.30;50.10;;;;;;5055258;28;20179;-75
2022/03/18 03:30:25;;;;;;;1.92;1.35;;;16.30;50.10;;;;;;5054235;28;20649;-75
2022/03/18 03:32:51;;;;;;;2.42;1.40;;;16.30;50.20;;;;;;5055428;28;20190;-74
2022/03/18 03:35:18;;;;;;;2.83;1.30;;;16.30;50.10;;;;;;5054748;28;20176;-73
2022/03/18 03:37:44;;;;;;;2.10;1.40;;;16.20;50.70;;;;;;5054667;28;20194;-74
2022/03/18 03:40:13;;;;;;;2.15;1.40;;;16.30;50.10;;;;;;5054789;28;20175;-72
2022/03/18 03:42:39;;;;;;;2.72;1.42;;;16.20;50.10;;;;;;5055290;28;20179;-73
2022/03/18 03:45:06;;;;;;;2.40;1.75;;;16.30;50.10;;;;;;5054473;28;20175;-75
2022/03/18 03:47:31;;;;;;;3.88;1.63;;;16.20;50.10;;;;;;5054878;28;20622;-74
2022/03/18 03:49:59;;;;;;;2.05;1.70;;;16.20;50.10;;;;;;5055004;28;20182;-74
2022/03/18 03:52:25;;;;;;;1.88;1.70;;;16.20;50.10;;;;;;5053817;28;20766;-74
2022/03/18 03:54:50;;;;;;;4.35;2.15;;;16.20;50.10;;;;;;5054682;28;20221;-75
2022/03/18 03:57:16;;;;;;;1.90;1.58;;;16.20;50.10;;;;;;5054290;28;20268;-73
2022/03/18 03:59:41;;;;;;;2.50;1.63;;;16.20;50.80;;;;;;5053999;28;20649;-73
2022/03/18 04:02:10;;;;;;;1.55;1.42;;;16.20;50.10;;;;;;5054301;28;20178;-73
2022/03/18 04:04:36;;;;;;;2.67;1.60;;;16.20;50.20;;;;;;5054001;28;20171;-73
2022/03/18 04:07:01;;;;;;;1.75;1.63;;;16.20;50.10;;;;;;5054690;28;20194;-73
2022/03/18 04:09:27;;;;;;;1.88;1.50;;;16.20;50.00;;;;;;5054217;28;20175;-73
2022/03/18 04:11:52;;;;;;;3.47;2.03;;;16.10;50.00;;;;;;5053692;28;20219;-75
2022/03/18 04:14:21;;;;;;;2.42;1.88;;;16.20;50.10;;;;;;5054168;28;20171;-73
2022/03/18 04:16:56;;;;;;;1.95;1.63;;;16.10;50.10;;;;;;5053571;28;20178;-74
2022/03/18 04:19:21;;;;;;;2.30;1.50;;;16.10;50.10;;;;;;5053382;28;20178;-74
2022/03/18 04:21:47;;;;;;;2.53;1.73;;;16.10;50.10;;;;;;5054102;28;20174;-74
2022/03/18 04:24:12;;;;;;;2.53;1.90;;;16.10;50.10;;;;;;5053802;28;20519;-74
2022/03/18 04:26:38;;;;;;;2.33;1.88;;;16.10;50.10;;;;;;5053357;28;20182;-75
2022/03/18 04:29:08;;;;;;;3.13;1.98;;;16.10;50.10;;;;;;5054117;28;20187;-75
2022/03/18 04:31:34;;;;;;;3.15;1.58;;;16.10;50.10;;;;;;5054289;28;20207;-74
2022/03/18 04:33:59;;;;;;;3.15;2.13;;;16.10;50.20;;;;;;5053477;28;20640;-74
2022/03/18 04:36:24;;;;;;;2.63;1.80;;;16.10;50.10;;;;;;5053695;28;20171;-73
2022/03/18 04:38:50;;;;;;;3.90;1.80;;;16.10;50.10;;;;;;5053842;28;20171;-73
2022/03/18 04:41:16;;;;;;;2.83;1.80;;;16.00;50.10;;;;;;5053128;28;20194;-73
2022/03/18 04:43:41;;;;;;;2.47;1.60;;;16.00;50.10;;;;;;5054044;28;20174;-74
2022/03/18 04:46:10;;;;;;;2.25;1.98;;;16.00;50.10;;;;;;5053642;28;20533;-74
2022/03/18 04:48:35;;;;;;;1.85;1.67;;;16.00;50.10;;;;;;5053093;28;20168;-75
2022/03/18 04:51:01;;;;;;;2.35;1.90;;;16.00;50.10;;;;;;5053710;28;20210;-75
2022/03/18 04:53:26;;;;;;;3.25;1.90;;;16.00;50.00;;;;;;5053443;28;20646;-74
2022/03/18 04:55:52;;;;;;;1.77;1.35;;;16.00;50.10;;;;;;5053052;28;20258;-73
2022/03/18 04:58:17;;;;;;;2.33;1.80;;;16.00;50.10;;;;;;5053501;28;20182;-72
2022/03/18 05:00:49;;;;;;;2.05;1.60;;;16.00;50.10;;;;;;5053149;28;20178;-72
2022/03/18 05:03:15;;;;;;;2.63;1.52;;;16.00;50.10;;;;;;5053245;28;20171;-71
2022/03/18 05:05:40;;;;;;;2.38;1.70;;;16.00;50.10;;;;;;5053355;28;20171;-73
2022/03/18 05:08:06;;;;;;;2.88;1.85;;;15.90;50.10;;;;;;5052694;28;20179;-71
2022/03/18 05:10:31;;;;;;;1.55;1.45;;;15.90;50.00;;;;;;5053378;28;20257;-75
2022/03/18 05:12:57;;;;;;;2.97;1.67;;;15.90;50.00;;;;;;5053411;28;20190;-74
2022/03/18 05:15:23;;;;;;;2.00;1.50;;;15.90;50.00;;;;;;5052241;28;20199;-73
2022/03/18 05:17:51;;;;;;;2.45;1.85;;;15.90;50.10;;;;;;5053255;28;20191;-75
2022/03/18 05:20:16;;;;;;;2.28;1.40;;;15.90;50.00;;;;;;5052816;28;20176;-74
2022/03/18 05:22:41;;;;;;;2.42;1.60;;;15.90;50.10;;;;;;5052711;28;20180;-75
2022/03/18 05:25:07;;;;;;;2.25;1.52;;;15.90;50.10;;;;;;5052881;28;20197;-74
2022/03/18 05:27:33;;;;;;;1.80;1.40;;;15.90;50.10;;;;;;5053353;28;20645;-74
2022/03/18 05:29:59;;;;;;;2.95;1.88;;;15.90;50.10;;;;;;5052353;28;20487;-74
2022/03/18 05:32:24;;;;;;;2.28;1.63;;;15.90;50.10;;;;;;5052744;28;20230;-72
2022/03/18 05:34:50;;;;;;;2.22;1.48;;;15.90;50.10;;;;;;5052928;28;20167;-73
2022/03/18 05:37:15;;;;;;;1.95;1.75;;;15.80;50.00;;;;;;5051871;28;20586;-71
2022/03/18 05:39:41;;;;;;;2.30;1.42;;;15.80;50.00;;;;;;5052797;28;20225;-73
2022/03/18 05:42:07;;;;;;;1.83;1.33;;;15.80;50.00;;;;;;5052575;28;20201;-72
2022/03/18 05:44:36;;;;;;;2.72;1.50;;;15.90;50.00;;;;;;5052357;28;20630;-73
2022/03/18 05:47:07;;;;;;;1.90;1.40;;;15.80;50.00;;;;;;5052928;28;20179;-74
2022/03/18 05:49:33;;;;;;;2.42;1.90;;;15.80;50.00;;;;;;5052797;28;20278;-74
2022/03/18 05:51:58;;;;;;;2.63;1.55;;;15.80;50.00;;;;;;5052138;28;20313;-73
2022/03/18 05:54:24;;;;;;;2.15;1.40;;;15.80;50.00;;;;;;5052434;28;20198;-72
2022/03/18 05:56:55;;;;;;;1.70;1.52;;;15.80;50.00;;;;;;5052495;28;20393;-73
2022/03/18 05:59:27;;;;;;;1.50;1.40;;;15.80;50.00;;;;;;5051679;28;20171;-71
2022/03/18 06:01:54;;;;;;;1.30;1.10;;;15.80;49.80;;;;;;5052939;28;20207;-71
2022/03/18 06:04:20;;;;;;;3.15;1.40;;;15.90;49.60;;;;;;5051681;28;20253;-71
2022/03/18 06:06:47;;;;;;;1.70;1.45;;;15.90;49.60;;;;;;5053027;28;20179;-73
2022/03/18 06:11:57;;;;;;;2.03;1.38;;;16.00;49.50;;;;;;5051675;28;20581;-73
2022/03/18 06:14:24;;;;;;;2.40;1.50;;;16.00;49.40;;;;;;5051794;28;20182;-72
2022/03/18 06:16:51;;;;;;;1.63;1.30;;;16.00;49.40;;;;;;5052497;28;20236;-72
2022/03/18 06:19:17;;;;;;;1.55;1.20;;;16.00;49.50;;;;;;5051257;28;20175;-71
2022/03/18 06:21:43;;;;;;;2.35;1.30;;;16.00;49.50;;;;;;5052230;28;20646;-72
2022/03/18 06:24:09;;;;;;;2.08;1.55;;;16.00;49.50;;;;;;5052002;28;20175;-70
2022/03/18 06:26:35;;;;;;;3.30;1.60;;;16.00;49.60;;;;;;5051484;28;20182;-73
2022/03/18 06:29:01;;;;;;;1.70;1.60;;;16.00;49.50;;;;;;5052036;28;20175;-73
2022/03/18 06:31:26;;;;;;;2.88;1.55;;;16.00;49.30;;;;;;5051392;28;20282;-73
2022/03/18 06:33:52;;;;;;;1.88;1.45;;;16.00;49.40;;;;;;5051371;28;20178;-72
2022/03/18 06:36:18;;;;;;;1.90;1.50;;;16.00;49.40;;;;;;5051607;28;20218;-70
2022/03/18 06:38:43;;;;;;;1.67;1.58;;;16.10;49.40;;;;;;5051917;28;20176;-73
2022/03/18 06:41:09;;;;;;;2.10;1.40;;;16.10;49.30;;;;;;5050389;28;20265;-72
2022/03/18 06:43:35;;;;;;;2.20;1.60;;;16.10;49.30;;;;;;5051757;28;20168;-72
2022/03/18 06:46:02;;;;;;;2.00;1.40;;;16.10;49.30;;;;;;5051729;28;20198;-73
2022/03/18 06:48:27;;;;;;;1.63;1.40;;;16.10;49.20;;;;;;5050962;28;20167;-73
2022/03/18 06:50:53;;;;;;;2.20;1.60;;;16.10;49.40;;;;;;5051699;28;20589;-74
2022/03/18 06:53:18;;;;;;;1.90;1.63;;;16.10;49.20;;;;;;5050685;28;20289;-73
2022/03/18 06:55:44;;;;;;;1.50;1.40;;;16.10;49.30;;;;;;5051713;28;20179;-73
2022/03/18 06:58:09;;;;;;;1.60;1.50;;;16.10;49.10;;;;;;5051338;28;20622;-72
2022/03/18 07:00:39;;;;;;;1.30;1.20;;;16.20;49.30;;;;;;5051168;28;20272;-73
2022/03/18 07:03:05;;;;;;;2.90;1.88;;;16.20;49.10;;;;;;5051626;28;20194;-72
2022/03/18 07:05:32;;;;;;;2.35;1.30;;;16.30;49.00;;;;;;5051448;28;20191;-74
2022/03/18 07:07:57;;;;;;;1.40;1.30;;;16.40;49.00;;;;;;5050781;28;20217;-71
2022/03/18 07:10:23;;;;;;;1.45;1.30;;;16.60;48.90;;;;;;5051372;28;20179;-70
2022/03/18 07:12:48;;;;;;;1.42;1.08;;;16.70;48.90;;;;;;5051212;28;20254;-74
2022/03/18 07:15:14;;;;;;;2.33;1.58;;;17.00;48.80;;;;;;5050695;28;20175;-74
2022/03/18 07:17:55;;;;;;;1.50;1.40;;;17.20;48.70;;;;;;5051693;28;20217;-74
2022/03/18 07:20:47;;;;;;;2.88;1.42;;;17.60;48.10;;;;;;5050979;28;20646;-73
2022/03/18 07:23:14;;;;;;;2.50;1.25;;;17.80;47.80;;;;;;5049111;28;20219;-73
2022/03/18 07:25:43;;;;;;;1.52;1.42;;;17.90;47.70;;;;;;5051604;28;20270;-74
2022/03/18 07:28:10;;;;;;;3.25;1.27;;;18.00;48.30;;;;;;5051164;28;20236;-72
2022/03/18 07:30:37;;;;;;;2.67;1.42;;;18.20;47.40;;;;;;5050510;28;20519;-68
2022/03/18 07:33:03;;;;;;;2.47;1.45;;;18.50;47.10;;;;;;5051412;28;20187;-70
2022/03/18 07:35:32;;;;;;;2.75;1.17;;;18.60;46.90;;;;;;5050221;28;20263;-73
2022/03/18 07:37:57;;;;;;;2.00;1.27;;;18.70;46.80;;;;;;5051307;28;20175;-70
2022/03/18 07:40:23;;;;;;;1.98;1.40;;;18.80;46.80;;;;;;5051091;28;20171;-73
2022/03/18 07:42:53;;;;;;;1.35;1.05;;;18.90;46.70;;;;;;5050668;28;20228;-69
2022/03/18 07:45:21;;;;;;;1.35;1.20;;;19.00;46.60;;;;;;5050961;28;20188;-75
2022/03/18 07:47:50;;;;;;;2.58;1.52;;;19.00;46.60;;;;;;5051220;28;20183;-74
2022/03/18 07:50:20;;;;;;;2.83;1.42;;;19.10;46.60;;;;;;5050192;28;20191;-74
2022/03/18 07:52:59;;;;;;;3.15;1.30;;;19.10;46.70;;;;;;5053429;28;20210;-73
2022/03/18 07:55:26;;;;;;;1.55;0.98;;;19.10;46.80;;;;;;5054856;28;20179;-74
2022/03/18 07:57:51;;;;;;;4.88;1.35;;;19.00;46.90;;;;;;5054129;28;20251;-73
2022/03/18 08:00:19;;;;;;;1.98;1.20;;;19.10;47.00;;;;;;5054597;28;20277;-72
2022/03/18 08:02:46;;;;;;;5.32;1.48;;;19.10;46.90;;;;;;5054737;28;20187;-70
2022/03/18 08:05:11;;;;;;;1.67;1.00;;;19.10;46.90;;;;;;5053772;28;20178;-71
2022/03/18 08:07:37;;;;;;;1.50;1.13;;;19.10;47.10;;;;;;5054882;28;20174;-70
2022/03/18 08:10:03;;;;;;;2.30;1.23;;;19.00;47.30;;;;;;5054448;28;20187;-71
2022/03/18 08:12:29;;;;;;;1.98;1.30;;;18.90;47.30;;;;;;5053354;28;20221;-73
2022/03/18 08:14:55;;;;;;;1.25;1.00;;;18.80;47.50;;;;;;5054449;28;20262;-73
2022/03/18 08:17:21;;;;;;;2.03;0.90;;;18.80;47.60;;;;;;5052641;28;20613;-73
2022/03/18 08:19:47;;;;;;;1.23;1.10;;;18.70;47.80;;;;;;5053646;28;20692;-73
2022/03/18 08:22:16;;;;;;;2.13;1.17;;;18.80;48.00;;;;;;5053921;28;20232;-72
2022/03/18 08:24:41;;;;;;;1.33;0.95;;;18.80;47.90;;;;;;5053725;28;20171;-73
2022/03/18 08:27:07;;;;;;;1.83;1.13;;;18.80;47.90;;;;;;5053970;28;20187;-73
2022/03/18 08:29:32;;;;;;;2.67;1.27;;;18.80;47.90;;;;;;5054290;28;20179;-73
2022/03/18 08:31:58;;;;;;;1.63;0.80;;;18.80;48.00;;;;;;5053301;28;20619;-73
2022/03/18 08:34:23;;;;;;;2.45;1.10;;;18.80;48.00;;;;;;5053881;28;20167;-71
2022/03/18 08:36:49;;;;;;;2.38;1.38;;;18.70;48.10;;;;;;5054384;28;20607;-71
2022/03/18 08:39:15;;;;;;;1.27;0.93;;;18.70;48.20;;;;;;5052903;28;20690;-72
2022/03/18 08:41:40;;;;;;;1.23;1.00;;;18.70;48.30;;;;;;5054006;28;20263;-72
2022/03/18 08:44:06;;;;;;;0.95;0.80;;;18.80;48.30;;;;;;5053572;28;20167;-72
2022/03/18 08:46:33;;;;;;;1.73;1.10;;;18.90;48.30;;;;;;5053089;28;20700;-73
2022/03/18 08:48:59;;;;;;;1.52;1.15;;;18.80;48.30;;;;;;5054001;28;20270;-73
2022/03/18 08:51:24;;;;;;;2.17;0.85;;;18.80;48.30;;;;;;5053511;28;20725;-74
2022/03/18 08:53:50;;;;;;;1.58;1.05;;;18.80;48.30;;;;;;5053896;28;20599;-71
2022/03/18 08:56:15;;;;;;;2.00;1.10;;;18.80;48.30;;;;;;5053615;28;20241;-73
2022/03/18 08:58:41;;;;;;;1.17;0.93;;;18.70;48.50;;;;;;5053666;28;20179;-72
2022/03/18 09:01:06;;;;;;;1.60;1.10;;;18.80;48.50;;;;;;5052679;28;20171;-72
2022/03/18 09:03:32;;;;;;;3.03;1.15;;;18.90;48.40;;;;;;5053490;28;20661;-71
2022/03/18 09:05:57;;;;;;;1.65;0.98;;;18.90;48.40;;;;;;5053806;28;20247;-70
2022/03/18 09:08:23;;;;;;;1.15;1.05;;;18.90;48.40;;;;;;5052985;28;20183;-73
2022/03/18 09:10:48;;;;;;;2.40;1.00;;;18.90;48.40;;;;;;5053543;28;20650;-73
2022/03/18 09:13:14;;;;;;;2.45;1.27;;;18.80;48.50;;;;;;5053297;28;20618;-72
2022/03/18 09:15:40;;;;;;;2.28;1.20;;;18.80;48.80;;;;;;5052644;28;20175;-72
2022/03/18 09:18:05;;;;;;;2.50;1.30;;;18.70;49.00;;;;;;5053252;28;20175;-71
2022/03/18 09:20:31;;;;;;;2.35;1.40;;;18.70;49.20;;;;;;5053096;28;20194;-70
2022/03/18 09:22:56;;;;;;;1.75;1.42;;;18.80;49.30;;;;;;5052418;28;20643;-69
2022/03/18 09:25:22;;;;;;;4.05;1.38;;;18.80;49.30;;;;;;5052886;28;20650;-68
2022/03/18 09:27:47;;;;;;;2.38;1.20;;;18.80;49.30;;;;;;5053122;28;20182;-69
2022/03/18 09:30:13;;;;;;;2.05;1.15;;;18.80;49.30;;;;;;5051908;28;20188;-69
2022/03/18 09:32:42;;;;;;;1.42;1.25;;;18.80;49.40;;;;;;5053085;28;20225;-70
2022/03/18 09:35:09;;;;;;;2.60;1.42;;;18.70;49.60;;;;;;5052054;28;20171;-72
2022/03/18 09:37:34;;;;;;;2.72;1.30;;;18.70;49.60;;;;;;5052967;28;20203;-73
2022/03/18 09:40:03;;;;;;;2.67;1.40;;;18.70;49.70;;;;;;5052819;28;20204;-71
2022/03/18 09:42:28;;;;;;;2.45;1.45;;;18.70;49.90;;;;;;5051679;28;20183;-69
2022/03/18 09:44:54;;;;;;;2.55;1.38;;;18.60;49.90;;;;;;5052642;28;20194;-69
2022/03/18 09:47:21;;;;;;;1.70;1.27;;;18.60;49.90;;;;;;5052686;28;20187;-69
2022/03/18 09:49:46;;;;;;;2.80;1.23;;;18.60;49.90;;;;;;5052149;28;20179;-74
2022/03/18 09:52:12;;;;;;;3.22;1.40;;;18.60;49.90;;;;;;5050727;28;20527;-74
2022/03/18 09:54:37;;;;;;;3.20;1.25;;;18.60;49.90;;;;;;5052676;28;20183;-74
2022/03/18 09:57:03;;;;;;;4.20;1.35;;;18.60;50.00;;;;;;5051682;28;20720;-73
2022/03/18 09:59:31;;;;;;;1.55;1.20;;;18.60;50.00;;;;;;5051983;28;20209;-72
2022/03/18 10:02:20;;;;;;;3.08;1.27;;;18.60;50.00;;;;;;5052694;28;20175;-73
2022/03/18 10:04:52;;;;;;;2.88;1.58;;;18.60;50.00;;;;;;5051834;28;20175;-73
2022/03/18 10:07:17;;;;;;;2.67;1.20;;;18.60;50.00;;;;;;5052135;28;20182;-72
2022/03/18 10:09:43;;;;;;;2.65;1.30;;;18.60;50.00;;;;;;5051121;28;20178;-74
2022/03/18 10:12:29;;;;;;;1.90;1.13;;;18.60;50.00;;;;;;5051108;28;20210;-73
2022/03/18 10:15:15;;;;;;;2.20;1.00;;;18.60;50.00;;;;;;5050529;28;20175;-72
2022/03/18 10:17:59;;;;;;;1.92;1.13;;;18.60;50.10;;;;;;5051392;28;20187;-72
2022/03/18 10:20:32;;;;;;;1.90;1.45;;;18.60;50.10;;;;;;5051853;28;20183;-73
2022/03/18 10:23:01;;;;;;;2.10;1.20;;;18.60;50.10;;;;;;5052283;28;20266;-72
2022/03/18 10:25:42;;;;;;;1.35;1.05;;;18.60;50.10;;;;;;5051081;28;20638;-73
2022/03/18 10:28:08;;;;;;;3.03;1.10;;;18.60;50.10;;;;;;5051640;28;20345;-73
2022/03/18 10:30:34;;;;;;;3.05;1.30;;;18.60;50.10;;;;;;5051918;28;20175;-74
2022/03/18 10:33:00;;;;;;;1.83;1.08;;;18.60;50.00;;;;;;5051216;28;20282;-74
2022/03/18 10:38:28;;;;;;;1.42;1.33;;;18.60;50.00;;;;;;5050904;28;20189;-74
2022/03/18 10:40:54;;;;;;;2.25;1.35;;;18.60;50.00;;;;;;5051784;28;20183;-72
2022/03/18 10:43:20;;;;;;;2.47;1.23;;;18.70;50.10;;;;;;5051294;28;20183;-72
2022/03/18 10:46:05;;;;;;;2.75;1.40;;;18.70;50.10;;;;;;5050948;28;20541;-73
2022/03/18 10:48:31;;;;;;;2.78;1.40;;;18.70;50.10;;;;;;5051852;28;20175;-73
2022/03/18 10:51:06;;;;;;;3.83;1.70;;;18.70;50.10;;;;;;5051491;28;20600;-72
2022/03/18 10:53:33;;;;;;;2.63;1.67;;;18.70;50.10;;;;;;5051019;28;20283;-74
2022/03/18 10:56:01;;;;;;;1.65;0.98;;;18.70;50.10;;;;;;5051269;28;20179;-74
2022/03/18 10:58:29;;;;;;;2.65;1.25;;;18.70;50.20;;;;;;5051391;28;20213;-72
2022/03/18 11:00:56;;;;;;;1.92;1.15;;;18.80;50.20;;;;;;5051135;28;20269;-74
2022/03/18 11:03:22;;;;;;;2.72;1.35;;;18.70;50.10;;;;;;5050062;28;20262;-70
2022/03/18 11:05:50;;;;;;;1.73;1.20;;;18.70;50.10;;;;;;5050125;28;20195;-70
2022/03/18 11:08:23;;;;;;;2.97;1.20;;;18.80;50.30;;;;;;5050390;28;20249;-70
2022/03/18 11:13:56;;;;;;;3.08;1.23;;;18.80;50.40;;;;;;5050955;28;20266;-71
2022/03/18 11:16:25;;;;;;;1.55;1.00;;;18.80;50.30;;;;;;5050988;28;20175;-70
2022/03/18 11:18:50;;;;;;;2.88;1.15;;;18.90;50.40;;;;;;5051407;28;20183;-70
2022/03/18 11:21:17;;;;;;;1.80;1.27;;;18.90;50.40;;;;;;5050423;28;20201;-69
2022/03/18 11:23:44;;;;;;;1.67;1.20;;;18.90;50.50;;;;;;5051436;28;20183;-70
2022/03/18 11:26:10;;;;;;;2.58;1.08;;;18.90;50.40;;;;;;5052377;28;20225;-70
2022/03/18 11:28:36;;;;;;;2.33;1.00;;;18.80;50.40;;;;;;5053300;28;20244;-70
2022/03/18 11:31:03;;;;;;;3.47;1.58;;;18.90;50.50;;;;;;5054976;28;20598;-72
2022/03/18 11:33:29;;;;;;;2.25;1.15;;;18.90;50.50;;;;;;5055125;28;20175;-73
2022/03/18 11:35:54;;;;;;;1.38;1.20;;;18.90;50.40;;;;;;5054486;28;20529;-74
2022/03/18 11:38:45;;;;;;;2.08;1.20;;;18.90;50.50;;;;;;5054930;28;20178;-72
2022/03/18 11:41:11;;;;;;;1.55;1.08;;;18.90;50.50;;;;;;5054801;28;20175;-70
2022/03/18 11:43:42;;;;;;;1.23;1.05;;;18.90;50.50;;;;;;5054322;28;20173;-71
2022/03/18 11:46:17;;;;;;;2.15;1.00;;;18.90;50.50;;;;;;5054707;28;20186;-71
2022/03/18 11:48:55;;;;;;;2.38;1.00;;;19.00;50.50;;;;;;5054188;28;20194;-74
2022/03/18 11:51:30;;;;;;;1.23;1.00;;;19.00;50.50;;;;;;5054356;28;20563;-74
2022/03/18 11:54:07;;;;;;;1.30;1.05;;;19.00;50.50;;;;;;5055015;28;20583;-74
2022/03/18 11:56:39;;;;;;;2.33;1.10;;;19.10;50.60;;;;;;5053831;28;20648;-72
2022/03/18 11:59:29;;;;;;;3.38;1.05;;;19.00;50.50;;;;;;5054943;28;20270;-73
2022/03/18 12:01:55;;;;;;;2.47;1.00;;;19.10;50.40;;;;;;5054540;28;20458;-72
2022/03/18 12:04:34;;;;;;;2.22;0.90;;;19.10;50.50;;;;;;5053567;28;20203;-74
2022/03/18 12:07:19;;;;;;;2.42;0.98;;;19.10;50.50;;;;;;5054837;28;20205;-73
2022/03/18 12:10:05;;;;;;;4.07;1.10;;;19.10;50.40;;;;;;5053879;28;20182;-76
2022/03/18 12:12:36;;;;;;;2.95;1.10;;;19.10;50.40;;;;;;5054423;28;20219;-74
2022/03/18 12:15:06;;;;;;;2.35;1.30;;;19.10;50.40;;;;;;5054389;28;20566;-72
2022/03/18 12:17:48;;;;;;;2.50;1.00;;;19.10;50.40;;;;;;5053832;28;20187;-71
2022/03/18 12:20:29;;;;;;;2.15;1.15;;;19.20;50.40;;;;;;5054053;28;20182;-74
2022/03/18 12:22:55;;;;;;;2.45;0.90;;;19.10;50.40;;;;;;5054458;28;20187;-73
2022/03/18 12:25:22;;;;;;;6.28;1.48;;;19.20;50.40;;;;;;5052899;28;20495;-72
2022/03/18 12:27:48;;;;;;;3.15;1.20;;;19.20;50.30;;;;;;5054370;28;20186;-72
2022/03/18 12:30:22;;;;;;;1.92;1.05;;;19.20;50.30;;;;;;5053797;28;20179;-71
2022/03/18 12:32:52;;;;;;;2.08;1.20;;;19.20;50.30;;;;;;5053393;28;20301;-71
2022/03/18 12:35:19;;;;;;;1.77;1.15;;;19.30;50.30;;;;;;5053809;28;20179;-70
2022/03/18 12:37:46;;;;;;;3.60;1.27;;;19.30;50.30;;;;;;5053118;28;20181;-68
2022/03/18 12:40:13;;;;;;;2.67;1.10;;;19.30;50.30;;;;;;5051846;28;20176;-71
2022/03/18 12:42:52;;;;;;;2.72;1.30;;;19.30;50.30;;;;;;5053725;28;20657;-67
2022/03/18 12:45:30;;;;;;;7.25;2.28;;;19.30;51.00;;;;;;5052711;28;20634;-67
2022/03/18 12:47:57;;;;;;;3.30;1.95;;;19.30;50.40;;;;;;5053901;28;20191;-72
2022/03/18 12:50:30;;;;;;;4.55;2.28;;;19.30;50.50;;;;;;5053427;28;20274;-72
2022/03/18 12:52:56;;;;;;;2.97;1.95;;;19.30;50.40;;;;;;5052997;28;20329;-70
2022/03/18 12:55:23;;;;;;;4.30;1.90;;;19.30;50.50;;;;;;5053422;28;20183;-71
2022/03/18 12:57:49;;;;;;;3.88;2.10;;;19.30;50.50;;;;;;5053476;28;20222;-70
2022/03/18 13:00:17;;;;;;;3.85;2.13;;;19.30;50.60;;;;;;5052429;28;20541;-73
2022/03/18 13:02:43;;;;;;;3.63;2.28;;;19.40;50.60;;;;;;5053565;28;20238;-71
2022/03/18 13:05:10;;;;;;;3.53;2.00;;;19.40;50.50;;;;;;5051927;28;20618;-70
2022/03/18 13:07:36;;;;;;;3.33;2.17;;;19.40;50.50;;;;;;5052738;28;20199;-70